createdAt,value
2022-11-21T00:01:24.153Z,99798.25
2022-11-21T00:03:51.251Z,99782.97
2022-11-21T00:06:18.611Z,99797.53
2022-11-21T00:08:46.383Z,99791.50
2022-11-21T00:11:13.839Z,99792.25
2022-11-21T00:13:40.790Z,99800.81
2022-11-21T00:16:10.323Z,99793.31
2022-11-21T00:18:37.262Z,99803.59
2022-11-21T00:21:16.383Z,99803.28
2022-11-21T00:23:43.933Z,99777.50
2022-11-21T00:26:12.328Z,99803.19
2022-11-21T00:28:38.996Z,99759.91
2022-11-21T00:31:06.446Z,99797.56
2022-11-21T00:33:35.139Z,99810.03
2022-11-21T00:36:09.464Z,99790.97
2022-11-21T00:38:37.093Z,99783.72
2022-11-21T00:41:04.464Z,99796.41
2022-11-21T00:43:31.340Z,99780.63
2022-11-21T00:46:01.446Z,99784.22
2022-11-21T00:48:29.031Z,99769.91
2022-11-21T00:50:55.950Z,99784.22
2022-11-21T00:53:22.673Z,99794.53
2022-11-21T00:55:49.363Z,99776.41
2022-11-21T00:58:16.002Z,99787.75
2022-11-21T01:00:42.819Z,99804.44
2022-11-21T01:03:09.906Z,99798.56
2022-11-21T01:05:36.668Z,99783.84
2022-11-21T01:08:03.544Z,99784.53
2022-11-21T01:10:30.343Z,99787.75
2022-11-21T01:12:57.276Z,99785.38
2022-11-21T01:15:24.053Z,99782.06
2022-11-21T01:17:50.708Z,99756.22
2022-11-21T01:20:17.557Z,99756.09
2022-11-21T01:22:44.241Z,99754.59
2022-11-21T01:25:10.957Z,99762.47
2022-11-21T01:27:37.629Z,99759.63
2022-11-21T01:30:04.654Z,99738.88
2022-11-21T01:32:31.291Z,99747.56
2022-11-21T01:34:57.940Z,99745.69
2022-11-21T01:37:25.261Z,99727.69
2022-11-21T01:39:52.120Z,99735.31
2022-11-21T01:42:18.857Z,99743.22
2022-11-21T01:44:48.824Z,99739.13
2022-11-21T01:47:15.549Z,99717.63
2022-11-21T01:49:42.529Z,99699.41
2022-11-21T01:52:14.815Z,99731.78
2022-11-21T01:55:02.779Z,99709.41
2022-11-21T01:57:39.449Z,99711.22
2022-11-21T02:00:17.532Z,99698.19
2022-11-21T02:02:48.895Z,99707.63
2022-11-21T02:05:23.428Z,99707.56
2022-11-21T02:07:55.473Z,99706.81
2022-11-21T02:10:23.152Z,99703.88
2022-11-21T02:12:51.697Z,99709.50
2022-11-21T02:15:19.579Z,99709.47
2022-11-21T02:17:46.494Z,99702.13
2022-11-21T02:20:17.040Z,99695.41
2022-11-21T02:22:46.952Z,99708.88
2022-11-21T02:25:20.145Z,99704.28
2022-11-21T02:27:47.139Z,99710.41
2022-11-21T02:30:13.803Z,99709.91
2022-11-21T02:32:46.831Z,99707.84
2022-11-21T02:35:15.773Z,99707.03
2022-11-21T02:37:45.249Z,99697.06
2022-11-21T02:40:18.264Z,99681.13
2022-11-21T02:42:56.451Z,99683.41
2022-11-21T02:45:27.304Z,99678.31
2022-11-21T02:48:00.691Z,99692.22
2022-11-21T02:50:33.035Z,99684.28
2022-11-21T02:53:00.380Z,99688.31
2022-11-21T02:55:27.515Z,99696.97
2022-11-21T02:57:54.634Z,99690.88
2022-11-21T03:00:22.109Z,99695.91
2022-11-21T03:02:48.880Z,99697.78
2022-11-21T03:05:17.749Z,99703.00
2022-11-21T03:07:45.346Z,99688.19
2022-11-21T03:10:12.360Z,99691.53
2022-11-21T03:12:40.736Z,99698.91
2022-11-21T03:15:09.636Z,99682.47
2022-11-21T03:17:36.273Z,99692.75
2022-11-21T03:20:04.006Z,99701.44
2022-11-21T03:22:30.785Z,99692.06
2022-11-21T03:24:57.740Z,99668.84
2022-11-21T03:27:24.450Z,99649.34
2022-11-21T03:29:51.053Z,99662.63
2022-11-21T03:32:17.665Z,99674.69
2022-11-21T03:34:44.461Z,99649.13
2022-11-21T03:37:11.079Z,99658.31
2022-11-21T03:39:37.791Z,99654.19
2022-11-21T03:42:04.586Z,99646.53
2022-11-21T03:44:31.209Z,99652.28
2022-11-21T03:46:57.901Z,99634.50
2022-11-21T03:49:24.562Z,99660.34
2022-11-21T03:51:51.278Z,99641.69
2022-11-21T03:54:17.956Z,99638.88
2022-11-21T03:56:44.582Z,99654.97
2022-11-21T03:59:11.291Z,99637.78
2022-11-21T04:01:38.060Z,99625.00
2022-11-21T04:04:05.320Z,99613.25
2022-11-21T04:06:32.039Z,99637.88
2022-11-21T04:08:58.976Z,99603.03
2022-11-21T04:11:25.836Z,99636.03
2022-11-21T04:13:53.011Z,99629.28
2022-11-21T04:16:20.283Z,99642.16
2022-11-21T04:18:47.217Z,99631.81
2022-11-21T04:21:14.217Z,99625.94
2022-11-21T04:23:40.925Z,99609.69
2022-11-21T04:26:07.840Z,99629.78
2022-11-21T04:28:34.633Z,99619.44
2022-11-21T04:31:10.233Z,99612.25
2022-11-21T04:33:38.596Z,99610.03
2022-11-21T04:36:06.109Z,99599.75
2022-11-21T04:38:32.704Z,99587.66
2022-11-21T04:40:59.342Z,99593.34
2022-11-21T04:43:26.006Z,99587.31
2022-11-21T04:45:52.709Z,99537.91
2022-11-21T04:48:19.380Z,99568.50
2022-11-21T04:50:46.793Z,99577.22
2022-11-21T04:53:13.706Z,99568.78
2022-11-21T04:55:40.309Z,99545.72
2022-11-21T04:58:06.985Z,99554.34
2022-11-21T05:00:34.913Z,99571.50
2022-11-21T05:03:05.965Z,99518.69
2022-11-21T05:05:32.778Z,99551.66
2022-11-21T05:07:59.678Z,99551.22
2022-11-21T05:10:26.543Z,99540.88
2022-11-21T05:13:18.696Z,99545.34
2022-11-21T05:15:46.057Z,99537.63
2022-11-21T05:18:12.796Z,99536.72
2022-11-21T05:20:39.588Z,99526.78
2022-11-21T05:23:06.523Z,99519.06
2022-11-21T05:25:33.236Z,99537.66
2022-11-21T05:27:59.954Z,99529.91
2022-11-21T05:30:26.593Z,99523.72
2022-11-21T05:32:53.224Z,99523.03
2022-11-21T05:35:19.916Z,99527.31
2022-11-21T05:37:46.606Z,99519.53
2022-11-21T05:40:13.339Z,99532.25
2022-11-21T05:43:01.707Z,99527.19
2022-11-21T05:45:28.324Z,99500.19
2022-11-21T05:47:54.912Z,99534.22
2022-11-21T05:50:21.548Z,99524.22
2022-11-21T05:52:48.229Z,99529.94
2022-11-21T05:55:15.010Z,99515.44
2022-11-21T05:57:41.733Z,99508.72
2022-11-21T06:00:09.075Z,99524.94
2022-11-21T06:02:54.335Z,99526.59
2022-11-21T06:05:21.020Z,99506.69
2022-11-21T06:07:47.733Z,99511.94
2022-11-21T06:10:14.456Z,99516.19
2022-11-21T06:12:41.062Z,99512.72
2022-11-21T06:15:08.241Z,99515.38
2022-11-21T06:17:34.852Z,99498.53
2022-11-21T06:20:02.059Z,99517.22
2022-11-21T06:22:28.684Z,99466.16
2022-11-21T06:24:55.286Z,99520.72
2022-11-21T06:27:22.003Z,99514.72
2022-11-21T06:29:48.727Z,99518.22
2022-11-21T06:32:15.646Z,99485.81
2022-11-21T06:34:42.407Z,99516.69
2022-11-21T06:37:09.087Z,99492.84
2022-11-21T06:39:35.730Z,99521.69
2022-11-21T06:42:02.791Z,99515.66
2022-11-21T06:44:29.722Z,99509.63
2022-11-21T06:46:56.661Z,99507.09
2022-11-21T06:49:23.390Z,99504.59
2022-11-21T06:51:50.290Z,99508.03
2022-11-21T06:54:17.308Z,99490.41
2022-11-21T06:56:44.358Z,99501.06
2022-11-21T06:59:11.652Z,99511.25
2022-11-21T07:01:38.556Z,99503.50
2022-11-21T07:04:05.361Z,99494.78
2022-11-21T07:06:32.128Z,99498.84
2022-11-21T07:09:31.478Z,99476.72
2022-11-21T07:11:45.578Z,99483.34
2022-11-21T07:14:13.256Z,99485.22
2022-11-21T07:16:40.131Z,99484.25
2022-11-21T07:19:06.741Z,99476.50
2022-11-21T07:21:33.427Z,99474.00
2022-11-21T07:24:00.041Z,99468.78
2022-11-21T07:26:26.737Z,99473.09
2022-11-21T07:28:53.398Z,99456.88
2022-11-21T07:31:20.072Z,99471.25
2022-11-21T07:33:47.696Z,99455.53
2022-11-21T07:36:14.385Z,99456.50
2022-11-21T07:38:42.037Z,99451.13
2022-11-21T07:41:09.591Z,99445.00
2022-11-21T07:43:36.656Z,99419.38
2022-11-21T07:46:03.726Z,99458.41
2022-11-21T07:48:30.344Z,99443.88
2022-11-21T07:50:56.956Z,99428.41
2022-11-21T07:53:24.290Z,99404.78
2022-11-21T07:55:50.999Z,99415.50
2022-11-21T07:58:18.125Z,99438.78
2022-11-21T08:00:44.854Z,99438.75
2022-11-21T08:03:12.871Z,99408.19
2022-11-21T08:05:42.596Z,99439.31
2022-11-21T08:08:10.890Z,99421.94
2022-11-21T08:10:45.707Z,99420.09
2022-11-21T08:13:13.191Z,99427.69
2022-11-21T08:15:40.595Z,99418.63
2022-11-21T08:18:15.984Z,99426.47
2022-11-21T08:20:43.040Z,99421.03
2022-11-21T08:23:11.119Z,99391.09
2022-11-21T08:25:39.339Z,99394.97
2022-11-21T08:28:07.444Z,99419.66
2022-11-21T08:30:35.111Z,99387.25
2022-11-21T08:33:02.029Z,99405.06
2022-11-21T08:35:29.540Z,99410.91
2022-11-21T08:37:57.586Z,99420.78
2022-11-21T08:40:28.976Z,99401.50
2022-11-21T08:43:00.741Z,99414.09
2022-11-21T08:45:27.601Z,99391.81
2022-11-21T08:47:54.702Z,99395.78
2022-11-21T08:50:22.898Z,99342.22
2022-11-21T08:52:50.066Z,99377.28
2022-11-21T08:55:17.055Z,99378.44
2022-11-21T08:57:43.974Z,99389.56
2022-11-21T09:00:15.081Z,99345.44
2022-11-21T09:02:42.176Z,99370.19
2022-11-21T09:05:09.632Z,99344.94
2022-11-21T09:07:36.648Z,99376.56
2022-11-21T09:10:04.045Z,99383.69
2022-11-21T09:12:31.069Z,99390.53
2022-11-21T09:15:16.475Z,99370.97
2022-11-21T09:18:01.416Z,99368.56
2022-11-21T09:20:28.127Z,99329.84
2022-11-21T09:22:54.803Z,99336.50
2022-11-21T09:25:21.542Z,99363.56
2022-11-21T09:27:48.184Z,99321.28
2022-11-21T09:30:15.798Z,99365.78
2022-11-21T09:32:42.343Z,99339.94
2022-11-21T09:35:09.641Z,99349.28
2022-11-21T09:37:39.382Z,99332.13
2022-11-21T09:40:06.714Z,99323.66
2022-11-21T09:42:56.955Z,99368.09
2022-11-21T09:45:28.155Z,99328.75
2022-11-21T09:47:56.070Z,99357.09
2022-11-21T09:50:34.930Z,99350.53
2022-11-21T09:53:12.779Z,99306.47
2022-11-21T09:55:57.939Z,99268.06
2022-11-21T09:58:30.538Z,99323.00
2022-11-21T10:00:58.548Z,99333.25
2022-11-21T10:03:29.819Z,99281.41
2022-11-21T10:06:16.056Z,99283.44
2022-11-21T10:08:43.020Z,99323.25
2022-11-21T10:11:23.704Z,99283.44
2022-11-21T10:14:11.583Z,99329.22
2022-11-21T10:16:52.896Z,99264.84
2022-11-21T10:19:37.572Z,99326.94
2022-11-21T10:22:10.061Z,99330.50
2022-11-21T10:24:40.926Z,99332.09
2022-11-21T10:27:37.604Z,99331.72
2022-11-21T10:30:15.161Z,99321.91
2022-11-21T10:32:46.502Z,99314.13
2022-11-21T10:35:19.175Z,99321.28
2022-11-21T10:37:51.990Z,99316.72
2022-11-21T10:40:29.970Z,99298.00
2022-11-21T10:43:33.668Z,99308.63
2022-11-21T10:46:00.329Z,99299.31
2022-11-21T10:48:26.938Z,99306.19
2022-11-21T10:51:14.288Z,99289.91
2022-11-21T10:54:04.565Z,99295.19
2022-11-21T10:56:35.758Z,99259.59
2022-11-21T10:59:28.643Z,99275.97
2022-11-21T11:02:22.838Z,99284.56
2022-11-21T11:04:52.424Z,99224.28
2022-11-21T11:07:28.943Z,99244.75
2022-11-21T11:10:26.950Z,99262.00
2022-11-21T11:13:38.793Z,99259.22
2022-11-21T11:16:16.259Z,99263.59
2022-11-21T11:18:52.188Z,99276.75
2022-11-21T11:21:24.914Z,99257.13
2022-11-21T11:23:54.070Z,99239.16
2022-11-21T11:26:25.276Z,99256.78
2022-11-21T11:28:52.368Z,99185.94
2022-11-21T11:31:19.177Z,99248.44
2022-11-21T11:33:48.692Z,99238.75
2022-11-21T11:36:15.387Z,99247.63
2022-11-21T11:38:48.573Z,99237.28
2022-11-21T11:42:00.819Z,99237.84
2022-11-21T11:45:24.615Z,99222.63
2022-11-21T11:47:56.833Z,99198.72
2022-11-21T11:50:29.486Z,99208.38
2022-11-21T11:53:20.260Z,99207.81
2022-11-21T11:56:16.757Z,99199.56
2022-11-21T11:58:54.204Z,99164.03
2022-11-21T12:01:33.098Z,99170.03
2022-11-21T12:04:07.064Z,99202.59
2022-11-21T12:07:41.128Z,99196.03
2022-11-21T12:09:35.050Z,99193.88
2022-11-21T12:12:17.091Z,99192.28
2022-11-21T12:15:07.094Z,99170.72
2022-11-21T12:17:57.644Z,99184.91
2022-11-21T12:20:30.084Z,99181.81
2022-11-21T12:22:57.381Z,99165.69
2022-11-21T12:25:30.599Z,99152.66
2022-11-21T12:27:57.341Z,99182.06
2022-11-21T12:30:50.020Z,99155.63
2022-11-21T12:33:23.930Z,99176.44
2022-11-21T12:36:18.717Z,99119.31
2022-11-21T12:38:54.883Z,99161.34
2022-11-21T12:41:43.145Z,99167.75
2022-11-21T12:44:19.154Z,99130.22
2022-11-21T12:47:11.154Z,99123.69
2022-11-21T12:50:38.377Z,99099.09
2022-11-21T12:53:41.655Z,99126.63
2022-11-21T12:56:19.482Z,99095.72
2022-11-21T12:58:51.750Z,99122.94
2022-11-21T13:01:48.381Z,99126.91
2022-11-21T13:04:23.612Z,99103.41
2022-11-21T13:06:51.585Z,99108.97
2022-11-21T13:09:22.626Z,99077.38
2022-11-21T13:12:01.518Z,99121.72
2022-11-21T13:14:36.611Z,99073.38
2022-11-21T13:17:21.834Z,99115.06
2022-11-21T13:20:05.194Z,99073.22
2022-11-21T13:22:37.789Z,99112.25
2022-11-21T13:25:09.592Z,99107.63
2022-11-21T13:27:39.328Z,99048.97
2022-11-21T13:30:09.100Z,99106.47
2022-11-21T13:32:38.787Z,99088.53
2022-11-21T13:35:14.939Z,99089.03
2022-11-21T13:38:01.924Z,99079.78
2022-11-21T13:40:28.603Z,99078.81
2022-11-21T13:43:32.738Z,99078.38
2022-11-21T13:45:59.430Z,99065.41
2022-11-21T13:48:30.679Z,99078.56
2022-11-21T13:51:11.134Z,99072.78
2022-11-21T13:53:58.103Z,99062.06
2022-11-21T13:56:53.762Z,99061.72
2022-11-21T13:59:42.216Z,99058.91
2022-11-21T14:02:27.587Z,99054.88
2022-11-21T14:05:20.244Z,99048.41
2022-11-21T14:07:47.960Z,98989.66
2022-11-21T14:10:34.177Z,98996.41
2022-11-21T14:13:03.435Z,99017.13
2022-11-21T14:15:47.042Z,99028.63
2022-11-21T14:18:25.370Z,99029.19
2022-11-21T14:20:58.586Z,99033.41
2022-11-21T14:23:26.541Z,99024.16
2022-11-21T14:26:05.156Z,98992.84
2022-11-21T14:28:34.963Z,99003.44
2022-11-21T14:31:06.659Z,99024.50
2022-11-21T14:33:35.583Z,98972.41
2022-11-21T14:36:12.757Z,99014.47
2022-11-21T14:42:03.061Z,98971.28
2022-11-21T14:44:30.235Z,98998.00
2022-11-21T14:50:26.197Z,98959.25
2022-11-21T14:58:22.487Z,98983.50
2022-11-21T15:01:22.181Z,98986.66
2022-11-21T15:04:26.243Z,98987.94
2022-11-21T15:06:53.342Z,98902.59
2022-11-21T15:12:09.863Z,98950.25
2022-11-21T15:14:42.992Z,98972.72
2022-11-21T15:17:16.467Z,98939.00
2022-11-21T15:19:44.326Z,98947.91
2022-11-21T15:22:26.221Z,98907.13
2022-11-21T15:25:07.438Z,98960.91
2022-11-21T15:27:35.285Z,98950.31
2022-11-21T15:30:09.888Z,98955.25
2022-11-21T15:33:04.403Z,98952.72
2022-11-21T15:35:52.533Z,98956.50
2022-11-21T15:38:24.485Z,98953.53
2022-11-21T15:41:01.675Z,98947.41
2022-11-21T15:43:35.614Z,98940.69
2022-11-21T15:46:03.412Z,98892.75
2022-11-21T15:48:30.594Z,98915.47
2022-11-21T15:50:58.890Z,98895.78
2022-11-21T15:53:25.836Z,98893.06
2022-11-21T15:55:52.496Z,98903.56
2022-11-21T15:58:19.601Z,98924.81
2022-11-21T16:03:54.258Z,98913.66
2022-11-21T16:06:21.147Z,98888.03
2022-11-21T16:08:59.084Z,98904.69
2022-11-21T16:11:28.534Z,98916.66
2022-11-21T16:14:00.536Z,98902.44
2022-11-21T16:16:30.288Z,98917.78
2022-11-21T16:18:57.475Z,98875.44
2022-11-21T16:21:24.607Z,98837.91
2022-11-21T16:23:52.267Z,98855.16
2022-11-21T16:26:19.335Z,98902.38
2022-11-21T16:28:47.081Z,98929.19
2022-11-21T16:31:25.009Z,98867.03
2022-11-21T16:33:51.866Z,98871.38
2022-11-21T16:36:23.696Z,98893.34
2022-11-21T16:38:50.978Z,98883.59
2022-11-21T16:41:22.170Z,98796.53
2022-11-21T16:43:51.415Z,98838.00
2022-11-21T16:46:20.246Z,98872.13
2022-11-21T16:48:47.304Z,98850.63
2022-11-21T16:51:20.269Z,98860.84
2022-11-21T16:53:49.151Z,98860.41
2022-11-21T16:56:16.989Z,98878.97
2022-11-21T16:58:43.996Z,98880.34
2022-11-21T17:01:16.144Z,98849.94
2022-11-21T17:03:45.310Z,98838.72
2022-11-21T17:06:13.827Z,98843.06
2022-11-21T17:08:40.623Z,98869.56
2022-11-21T17:11:29.326Z,98853.22
2022-11-21T17:14:04.343Z,98860.84
2022-11-21T17:16:32.082Z,98820.00
2022-11-21T17:19:01.106Z,98860.84
2022-11-21T17:21:28.909Z,98831.66
2022-11-21T17:23:55.710Z,98837.34
2022-11-21T17:26:25.075Z,98838.84
2022-11-21T17:28:55.953Z,98861.81
2022-11-21T17:31:23.006Z,98835.16
2022-11-21T17:33:54.750Z,98825.72
2022-11-21T17:36:27.057Z,98853.59
2022-11-21T17:38:54.592Z,98854.28
2022-11-21T17:41:23.143Z,98851.81
2022-11-21T17:43:54.574Z,98831.19
2022-11-21T17:46:21.257Z,98834.38
2022-11-21T17:48:55.042Z,98818.88
2022-11-21T17:51:25.645Z,98844.00
2022-11-21T17:53:52.973Z,98839.75
2022-11-21T17:56:22.500Z,98853.41
2022-11-21T17:58:50.262Z,98823.31
2022-11-21T18:01:20.542Z,98788.16
2022-11-21T18:03:59.081Z,98847.25
2022-11-21T18:06:28.477Z,98852.50
2022-11-21T18:08:58.607Z,98827.53
2022-11-21T18:11:32.046Z,98825.22
2022-11-21T18:14:03.240Z,98861.22
2022-11-21T18:16:31.657Z,98836.53
2022-11-21T18:18:59.209Z,98857.09
2022-11-21T18:21:31.304Z,98863.25
2022-11-21T18:23:59.638Z,98864.13
2022-11-21T18:26:29.423Z,98853.72
2022-11-21T18:29:28.793Z,98836.75
2022-11-21T18:31:48.151Z,98839.91
2022-11-21T18:34:14.878Z,98819.13
2022-11-21T18:36:41.606Z,98820.25
2022-11-21T18:39:14.300Z,98811.34
2022-11-21T18:41:42.086Z,98842.59
2022-11-21T18:44:08.889Z,98778.03
2022-11-21T18:46:37.197Z,98839.25
2022-11-21T18:49:07.454Z,98834.47
2022-11-21T18:51:35.807Z,98839.09
2022-11-21T18:54:07.120Z,98839.31
2022-11-21T18:56:34.857Z,98823.09
2022-11-21T18:59:03.765Z,98786.28
2022-11-21T19:01:32.008Z,98829.34
2022-11-21T19:03:59.227Z,98783.59
2022-11-21T19:06:27.019Z,98819.84
2022-11-21T19:08:55.722Z,98840.50
2022-11-21T19:11:24.681Z,98833.13
2022-11-21T19:13:53.032Z,98814.81
2022-11-21T19:16:21.740Z,98800.94
2022-11-21T19:19:11.555Z,98803.38
2022-11-21T19:21:38.146Z,98797.72
2022-11-21T19:24:06.951Z,98790.59
2022-11-21T19:26:33.941Z,98758.63
2022-11-21T19:31:45.644Z,98792.28
2022-11-21T19:34:18.801Z,98822.03
2022-11-21T19:36:45.467Z,98775.25
2022-11-21T19:39:12.747Z,98783.47
2022-11-21T19:41:39.445Z,98785.25
2022-11-21T19:44:06.243Z,98808.41
2022-11-21T19:46:35.570Z,98762.09
2022-11-21T19:49:02.603Z,98776.31
2022-11-21T19:51:35.709Z,98809.50
2022-11-21T19:54:03.979Z,98768.19
2022-11-21T19:56:30.743Z,98780.97
2022-11-21T19:58:58.599Z,98772.81
2022-11-21T20:01:27.801Z,98777.59
2022-11-21T20:03:57.173Z,98792.75
2022-11-21T20:06:26.712Z,98791.53
2022-11-21T20:08:56.836Z,98787.81
2022-11-21T20:11:25.182Z,98777.19
2022-11-21T20:13:52.582Z,98788.75
2022-11-21T20:16:27.766Z,98783.25
2022-11-21T20:18:57.774Z,98734.69
2022-11-21T20:21:25.022Z,98772.34
2022-11-21T20:23:52.165Z,98722.75
2022-11-21T20:26:21.161Z,98774.47
2022-11-21T20:28:48.879Z,98772.63
2022-11-21T20:31:17.135Z,98760.00
2022-11-21T20:33:46.472Z,98769.94
2022-11-21T20:36:17.700Z,98777.25
2022-11-21T20:38:49.750Z,98765.31
2022-11-21T20:41:16.449Z,98746.03
2022-11-21T20:44:27.348Z,98767.63
2022-11-21T20:46:30.022Z,98767.38
2022-11-21T20:48:57.673Z,98770.56
2022-11-21T20:54:11.922Z,98763.06
2022-11-21T20:56:41.330Z,98755.88
2022-11-21T20:59:10.912Z,98754.75
2022-11-21T21:01:37.707Z,98733.56
2022-11-21T21:04:04.593Z,98751.66
2022-11-21T21:06:31.398Z,98765.13
2022-11-21T21:08:58.449Z,98738.78
2022-11-21T21:14:12.175Z,98755.19
2022-11-21T21:16:38.881Z,98756.94
2022-11-21T21:19:05.531Z,98731.16
2022-11-21T21:21:32.353Z,98755.50
2022-11-21T21:24:00.376Z,98753.28
2022-11-21T21:26:30.237Z,98719.19
2022-11-21T21:28:59.809Z,98751.69
2022-11-21T21:31:28.123Z,98752.03
2022-11-21T21:33:55.197Z,98741.69
2022-11-21T21:36:24.459Z,98735.72
2022-11-21T21:38:58.983Z,98740.31
2022-11-21T21:41:27.404Z,98746.41
2022-11-21T21:43:55.518Z,98740.53
2022-11-21T21:46:24.205Z,98741.38
2022-11-21T21:48:55.854Z,98727.84
2022-11-21T21:51:27.807Z,98745.16
2022-11-21T21:53:56.268Z,98738.63
2022-11-21T21:56:25.029Z,98716.69
2022-11-21T21:58:52.258Z,98745.66
2022-11-21T22:01:20.002Z,98727.34
2022-11-21T22:03:47.711Z,98733.19
2022-11-21T22:06:17.060Z,98739.78
2022-11-21T22:08:45.607Z,98735.06
2022-11-21T22:11:17.832Z,98741.91
2022-11-21T22:13:46.850Z,98730.22
2022-11-21T22:16:14.603Z,98736.06
2022-11-21T22:18:41.408Z,98745.91
2022-11-21T22:21:15.028Z,98744.25
2022-11-21T22:24:02.484Z,98729.69
2022-11-21T22:26:28.991Z,98727.13
2022-11-21T22:28:56.196Z,98731.47
2022-11-21T22:31:22.844Z,98729.06
2022-11-21T22:33:49.647Z,98722.50
2022-11-21T22:36:18.615Z,98720.84
2022-11-21T22:38:45.627Z,98715.63
2022-11-21T22:41:12.188Z,98724.81
2022-11-21T22:43:39.932Z,98723.25
2022-11-21T22:46:07.370Z,98710.09
2022-11-21T22:48:35.227Z,98724.88
2022-11-21T22:51:02.253Z,98716.25
2022-11-21T22:53:28.962Z,98715.03
2022-11-21T22:56:05.333Z,98720.69
2022-11-21T22:58:38.295Z,98721.81
2022-11-21T23:01:12.998Z,98725.38
2022-11-21T23:03:40.771Z,98708.34
2022-11-21T23:06:29.749Z,98721.56
2022-11-21T23:08:57.289Z,98705.94
2022-11-21T23:11:29.291Z,98718.53
2022-11-21T23:13:56.714Z,98722.38
2022-11-21T23:16:23.844Z,98709.94
2022-11-21T23:18:53.653Z,98735.94
2022-11-21T23:21:21.443Z,98729.56
2022-11-21T23:23:48.421Z,98728.00
2022-11-21T23:26:15.182Z,98734.81
2022-11-21T23:28:41.870Z,98721.97
2022-11-21T23:31:10.338Z,98720.75
2022-11-21T23:33:37.197Z,98715.09
2022-11-21T23:36:04.691Z,98703.94
2022-11-21T23:38:31.462Z,98722.09
2022-11-21T23:40:58.167Z,98723.38
2022-11-21T23:43:24.862Z,98732.56
2022-11-21T23:45:52.603Z,98726.91
2022-11-21T23:48:20.033Z,98735.56
2022-11-21T23:50:47.864Z,98733.63
2022-11-21T23:53:14.586Z,98728.94
2022-11-21T23:55:42.522Z,98729.44
2022-11-21T23:58:09.278Z,98711.75
